sensor_id;sensor_type;location;lat;lon;timestamp;pressure;altitude;pressure_sealevel;temperature;humidity
76216;BME280;65010;50.190;18.930;2023-04-12T00:00:05;97817.16;;;7.89;60.36
76216;BME280;65010;50.190;18.930;2023-04-12T00:03:17;97822.72;;;7.94;60.32
76216;BME280;65010;50.190;18.930;2023-04-12T00:06:24;97830.41;;;7.87;59.86
76216;BME280;65010;50.190;18.930;2023-04-12T00:09:35;97825.53;;;7.84;60.02
76216;BME280;65010;50.190;18.930;2023-04-12T00:12:43;97826.34;;;7.85;60.14
76216;BME280;65010;50.190;18.930;2023-04-12T00:15:50;97826.50;;;7.83;59.93
76216;BME280;65010;50.190;18.930;2023-04-12T00:18:55;97830.56;;;7.86;60.31
76216;BME280;65010;50.190;18.930;2023-04-12T00:22:03;97819.84;;;7.73;59.89
76216;BME280;65010;50.190;18.930;2023-04-12T00:25:10;97824.56;;;7.77;60.32
76216;BME280;65010;50.190;18.930;2023-04-12T00:28:19;97828.97;;;7.77;59.63
76216;BME280;65010;50.190;18.930;2023-04-12T00:31:25;97822.94;;;7.76;59.74
76216;BME280;65010;50.190;18.930;2023-04-12T00:34:31;97829.47;;;7.80;60.22
76216;BME280;65010;50.190;18.930;2023-04-12T00:37:37;97828.19;;;7.76;59.51
76216;BME280;65010;50.190;18.930;2023-04-12T00:40:43;97820.28;;;7.84;60.04
76216;BME280;65010;50.190;18.930;2023-04-12T00:43:52;97821.78;;;7.79;59.82
76216;BME280;65010;50.190;18.930;2023-04-12T00:46:59;97819.97;;;7.79;59.30
76216;BME280;65010;50.190;18.930;2023-04-12T00:50:10;97817.53;;;7.78;59.95
76216;BME280;65010;50.190;18.930;2023-04-12T00:53:17;97811.97;;;7.81;59.65
76216;BME280;65010;50.190;18.930;2023-04-12T00:56:23;97812.44;;;7.84;59.48
76216;BME280;65010;50.190;18.930;2023-04-12T00:59:33;97802.78;;;7.85;59.22
76216;BME280;65010;50.190;18.930;2023-04-12T01:02:40;97806.38;;;7.84;58.85
76216;BME280;65010;50.190;18.930;2023-04-12T01:06:03;97803.31;;;7.80;58.71
76216;BME280;65010;50.190;18.930;2023-04-12T01:09:26;97803.31;;;7.80;59.84
76216;BME280;65010;50.190;18.930;2023-04-12T01:12:47;97808.19;;;7.83;59.18
76216;BME280;65010;50.190;18.930;2023-04-12T01:16:13;97802.34;;;7.73;59.22
76216;BME280;65010;50.190;18.930;2023-04-12T01:19:52;97790.44;;;7.62;59.20
76216;BME280;65010;50.190;18.930;2023-04-12T01:26:54;97807.41;;;7.75;59.40
76216;BME280;65010;50.190;18.930;2023-04-12T01:30:05;97809.66;;;7.78;59.37
76216;BME280;65010;50.190;18.930;2023-04-12T01:33:17;97809.84;;;7.84;59.45
76216;BME280;65010;50.190;18.930;2023-04-12T01:36:26;97809.19;;;7.82;58.85
76216;BME280;65010;50.190;18.930;2023-04-12T01:39:37;97813.41;;;7.83;58.79
76216;BME280;65010;50.190;18.930;2023-04-12T01:42:43;97816.38;;;7.80;58.14
76216;BME280;65010;50.190;18.930;2023-04-12T01:45:52;97811.03;;;7.65;58.79
76216;BME280;65010;50.190;18.930;2023-04-12T01:48:58;97812.16;;;7.71;59.13
76216;BME280;65010;50.190;18.930;2023-04-12T01:52:11;97808.69;;;7.79;59.43
76216;BME280;65010;50.190;18.930;2023-04-12T01:55:20;97805.53;;;7.92;58.31
76216;BME280;65010;50.190;18.930;2023-04-12T01:58:31;97794.69;;;8.03;58.11
76216;BME280;65010;50.190;18.930;2023-04-12T02:01:41;97798.28;;;8.02;57.85
76216;BME280;65010;50.190;18.930;2023-04-12T02:04:50;97795.19;;;8.06;58.73
76216;BME280;65010;50.190;18.930;2023-04-12T02:07:58;97798.91;;;8.12;58.08
76216;BME280;65010;50.190;18.930;2023-04-12T02:11:08;97799.91;;;8.11;58.34
76216;BME280;65010;50.190;18.930;2023-04-12T02:14:18;97801.81;;;8.17;58.33
76216;BME280;65010;50.190;18.930;2023-04-12T02:17:27;97791.72;;;8.14;57.24
76216;BME280;65010;50.190;18.930;2023-04-12T02:20:33;97791.88;;;8.13;57.65
76216;BME280;65010;50.190;18.930;2023-04-12T02:23:40;97793.69;;;8.04;57.37
76216;BME280;65010;50.190;18.930;2023-04-12T02:26:47;97790.13;;;8.05;57.04
76216;BME280;65010;50.190;18.930;2023-04-12T02:29:53;97791.16;;;7.87;57.18
76216;BME280;65010;50.190;18.930;2023-04-12T02:33:03;97782.75;;;7.69;57.16
76216;BME280;65010;50.190;18.930;2023-04-12T02:36:10;97785.06;;;7.56;57.50
76216;BME280;65010;50.190;18.930;2023-04-12T02:39:17;97785.31;;;7.38;57.83
76216;BME280;65010;50.190;18.930;2023-04-12T02:42:26;97786.59;;;7.25;57.92
76216;BME280;65010;50.190;18.930;2023-04-12T02:45:33;97794.31;;;7.19;58.57
76216;BME280;65010;50.190;18.930;2023-04-12T02:48:42;97794.81;;;7.14;58.08
76216;BME280;65010;50.190;18.930;2023-04-12T02:51:49;97798.06;;;7.16;58.43
76216;BME280;65010;50.190;18.930;2023-04-12T02:55:00;97789.56;;;7.22;57.97
76216;BME280;65010;50.190;18.930;2023-04-12T02:58:06;97794.63;;;7.32;57.88
76216;BME280;65010;50.190;18.930;2023-04-12T03:01:18;97790.34;;;7.31;57.91
76216;BME280;65010;50.190;18.930;2023-04-12T03:04:51;97799.00;;;7.32;57.91
76216;BME280;65010;50.190;18.930;2023-04-12T03:08:06;97803.44;;;7.31;58.17
76216;BME280;65010;50.190;18.930;2023-04-12T03:11:20;97806.38;;;7.36;57.55
76216;BME280;65010;50.190;18.930;2023-04-12T03:14:26;97811.09;;;7.41;57.03
76216;BME280;65010;50.190;18.930;2023-04-12T03:17:33;97809.63;;;7.38;56.96
76216;BME280;65010;50.190;18.930;2023-04-12T03:20:42;97799.84;;;7.24;57.73
76216;BME280;65010;50.190;18.930;2023-04-12T03:23:49;97802.63;;;7.30;57.76
76216;BME280;65010;50.190;18.930;2023-04-12T03:26:57;97801.47;;;7.33;56.84
76216;BME280;65010;50.190;18.930;2023-04-12T03:30:07;97807.50;;;7.34;57.18
76216;BME280;65010;50.190;18.930;2023-04-12T03:33:15;97803.75;;;7.36;57.27
76216;BME280;65010;50.190;18.930;2023-04-12T03:36:25;97799.50;;;7.35;56.52
76216;BME280;65010;50.190;18.930;2023-04-12T03:39:40;97797.03;;;7.34;56.80
76216;BME280;65010;50.190;18.930;2023-04-12T03:42:54;97788.09;;;7.28;56.87
76216;BME280;65010;50.190;18.930;2023-04-12T03:46:05;97781.72;;;7.22;57.27
76216;BME280;65010;50.190;18.930;2023-04-12T03:49:11;97789.88;;;7.19;56.54
76216;BME280;65010;50.190;18.930;2023-04-12T03:52:24;97787.63;;;7.16;57.79
76216;BME280;65010;50.190;18.930;2023-04-12T03:55:30;97766.06;;;7.14;57.33
76216;BME280;65010;50.190;18.930;2023-04-12T03:58:36;97777.44;;;7.29;57.11
76216;BME280;65010;50.190;18.930;2023-04-12T04:01:43;97786.44;;;7.35;56.99
76216;BME280;65010;50.190;18.930;2023-04-12T04:04:50;97770.75;;;7.35;56.96
76216;BME280;65010;50.190;18.930;2023-04-12T04:08:04;97769.28;;;7.33;56.55
76216;BME280;65010;50.190;18.930;2023-04-12T04:11:26;97766.72;;;7.16;56.83
76216;BME280;65010;50.190;18.930;2023-04-12T04:14:39;97765.59;;;7.02;57.06
76216;BME280;65010;50.190;18.930;2023-04-12T04:17:51;97766.09;;;6.89;57.76
76216;BME280;65010;50.190;18.930;2023-04-12T04:20:57;97774.59;;;6.83;57.56
76216;BME280;65010;50.190;18.930;2023-04-12T04:24:09;97767.88;;;6.73;57.76
76216;BME280;65010;50.190;18.930;2023-04-12T04:27:20;97770.34;;;6.74;58.24
76216;BME280;65010;50.190;18.930;2023-04-12T04:30:29;97776.22;;;6.76;58.08
76216;BME280;65010;50.190;18.930;2023-04-12T04:33:37;97778.47;;;6.79;57.78
76216;BME280;65010;50.190;18.930;2023-04-12T04:36:44;97780.44;;;6.77;58.23
76216;BME280;65010;50.190;18.930;2023-04-12T04:40:00;97783.72;;;6.87;58.20
76216;BME280;65010;50.190;18.930;2023-04-12T04:43:12;97790.72;;;6.95;58.35
76216;BME280;65010;50.190;18.930;2023-04-12T04:46:20;97794.34;;;6.94;57.92
76216;BME280;65010;50.190;18.930;2023-04-12T04:49:28;97788.47;;;6.92;57.60
76216;BME280;65010;50.190;18.930;2023-04-12T04:53:01;97792.69;;;6.93;57.58
76216;BME280;65010;50.190;18.930;2023-04-12T04:56:11;97797.44;;;6.89;58.01
76216;BME280;65010;50.190;18.930;2023-04-12T04:59:19;97800.72;;;6.92;57.79
76216;BME280;65010;50.190;18.930;2023-04-12T05:02:28;97802.47;;;6.99;57.69
76216;BME280;65010;50.190;18.930;2023-04-12T05:05:34;97799.72;;;7.01;57.34
76216;BME280;65010;50.190;18.930;2023-04-12T05:08:45;97804.78;;;6.94;57.63
76216;BME280;65010;50.190;18.930;2023-04-12T05:11:54;97805.94;;;7.00;58.02
76216;BME280;65010;50.190;18.930;2023-04-12T05:15:02;97808.03;;;7.04;57.52
76216;BME280;65010;50.190;18.930;2023-04-12T05:18:14;97814.56;;;7.08;57.38
76216;BME280;65010;50.190;18.930;2023-04-12T05:21:21;97817.69;;;7.12;57.48
76216;BME280;65010;50.190;18.930;2023-04-12T05:24:27;97812.13;;;7.07;57.46
76216;BME280;65010;50.190;18.930;2023-04-12T05:27:37;97823.88;;;7.11;57.75
76216;BME280;65010;50.190;18.930;2023-04-12T05:30:47;97813.09;;;7.14;57.67
76216;BME280;65010;50.190;18.930;2023-04-12T05:33:58;97805.25;;;7.22;57.19
76216;BME280;65010;50.190;18.930;2023-04-12T05:37:08;97808.00;;;7.29;57.21
76216;BME280;65010;50.190;18.930;2023-04-12T05:40:14;97793.78;;;7.40;57.13
76216;BME280;65010;50.190;18.930;2023-04-12T05:43:27;97797.69;;;7.52;56.21
76216;BME280;65010;50.190;18.930;2023-04-12T05:46:33;97799.91;;;7.63;56.12
76216;BME280;65010;50.190;18.930;2023-04-12T05:49:39;97795.16;;;7.67;56.23
76216;BME280;65010;50.190;18.930;2023-04-12T05:52:47;97792.38;;;7.77;55.89
76216;BME280;65010;50.190;18.930;2023-04-12T05:56:00;97798.31;;;7.94;56.06
76216;BME280;65010;50.190;18.930;2023-04-12T05:59:09;97801.78;;;7.86;55.71
76216;BME280;65010;50.190;18.930;2023-04-12T06:02:15;97791.81;;;7.89;55.79
76216;BME280;65010;50.190;18.930;2023-04-12T06:05:23;97801.25;;;7.99;55.28
76216;BME280;65010;50.190;18.930;2023-04-12T06:08:28;97796.72;;;7.93;54.37
76216;BME280;65010;50.190;18.930;2023-04-12T06:11:38;97798.41;;;7.77;54.88
76216;BME280;65010;50.190;18.930;2023-04-12T06:14:46;97793.66;;;7.81;55.16
76216;BME280;65010;50.190;18.930;2023-04-12T06:17:53;97793.97;;;7.78;54.97
76216;BME280;65010;50.190;18.930;2023-04-12T06:20:59;97794.84;;;7.70;54.92
76216;BME280;65010;50.190;18.930;2023-04-12T06:24:07;97796.50;;;7.63;55.16
76216;BME280;65010;50.190;18.930;2023-04-12T06:27:12;97788.19;;;7.51;55.96
76216;BME280;65010;50.190;18.930;2023-04-12T06:30:22;97791.13;;;7.56;56.00
76216;BME280;65010;50.190;18.930;2023-04-12T06:33:28;97779.34;;;7.60;56.43
76216;BME280;65010;50.190;18.930;2023-04-12T06:36:36;97779.03;;;7.55;55.92
76216;BME280;65010;50.190;18.930;2023-04-12T06:39:43;97769.78;;;7.36;56.20
76216;BME280;65010;50.190;18.930;2023-04-12T06:42:50;97778.53;;;7.52;56.52
76216;BME280;65010;50.190;18.930;2023-04-12T06:45:59;97774.25;;;7.67;56.26
76216;BME280;65010;50.190;18.930;2023-04-12T06:49:07;97765.69;;;7.81;55.58
76216;BME280;65010;50.190;18.930;2023-04-12T06:52:12;97773.53;;;8.21;55.54
76216;BME280;65010;50.190;18.930;2023-04-12T06:55:19;97767.53;;;8.81;54.09
76216;BME280;65010;50.190;18.930;2023-04-12T06:58:25;97756.31;;;9.40;52.71
76216;BME280;65010;50.190;18.930;2023-04-12T07:01:35;97763.56;;;10.19;51.40
76216;BME280;65010;50.190;18.930;2023-04-12T07:04:44;97762.38;;;10.80;48.87
76216;BME280;65010;50.190;18.930;2023-04-12T07:07:50;97764.41;;;11.06;47.79
76216;BME280;65010;50.190;18.930;2023-04-12T07:10:56;97773.50;;;10.82;47.53
76216;BME280;65010;50.190;18.930;2023-04-12T07:14:19;97768.00;;;10.77;48.30
76216;BME280;65010;50.190;18.930;2023-04-12T07:17:28;97762.56;;;11.06;49.71
76216;BME280;65010;50.190;18.930;2023-04-12T07:20:34;97763.78;;;11.67;48.70
76216;BME280;65010;50.190;18.930;2023-04-12T07:23:40;97764.38;;;12.17;45.95
76216;BME280;65010;50.190;18.930;2023-04-12T07:26:46;97761.09;;;12.83;44.47
76216;BME280;65010;50.190;18.930;2023-04-12T07:29:52;97757.00;;;13.14;44.14
76216;BME280;65010;50.190;18.930;2023-04-12T07:33:03;97755.84;;;13.88;42.68
76216;BME280;65010;50.190;18.930;2023-04-12T07:36:20;97749.69;;;14.72;41.29
76216;BME280;65010;50.190;18.930;2023-04-12T07:39:29;97757.09;;;15.57;39.94
76216;BME280;65010;50.190;18.930;2023-04-12T07:42:36;97753.81;;;16.10;38.18
76216;BME280;65010;50.190;18.930;2023-04-12T07:45:42;97758.50;;;16.26;38.27
76216;BME280;65010;50.190;18.930;2023-04-12T07:48:52;97755.19;;;16.31;35.22
76216;BME280;65010;50.190;18.930;2023-04-12T07:51:59;97749.25;;;16.17;35.98
76216;BME280;65010;50.190;18.930;2023-04-12T07:55:05;97743.97;;;15.99;35.36
76216;BME280;65010;50.190;18.930;2023-04-12T07:58:12;97743.38;;;15.23;36.74
76216;BME280;65010;50.190;18.930;2023-04-12T08:01:18;97753.91;;;14.79;37.57
76216;BME280;65010;50.190;18.930;2023-04-12T08:04:27;97752.72;;;14.05;38.55
76216;BME280;65010;50.190;18.930;2023-04-12T08:07:32;97749.22;;;13.53;38.87
76216;BME280;65010;50.190;18.930;2023-04-12T08:10:39;97743.44;;;12.77;40.80
76216;BME280;65010;50.190;18.930;2023-04-12T08:13:45;97734.41;;;12.25;42.31
76216;BME280;65010;50.190;18.930;2023-04-12T08:16:54;97760.66;;;11.98;44.00
76216;BME280;65010;50.190;18.930;2023-04-12T08:20:03;97748.09;;;12.00;43.31
76216;BME280;65010;50.190;18.930;2023-04-12T08:23:11;97749.78;;;12.15;44.60
76216;BME280;65010;50.190;18.930;2023-04-12T08:26:16;97758.75;;;12.40;42.71
76216;BME280;65010;50.190;18.930;2023-04-12T08:29:23;97736.66;;;12.41;42.16
76216;BME280;65010;50.190;18.930;2023-04-12T08:32:29;97739.53;;;12.46;41.19
76216;BME280;65010;50.190;18.930;2023-04-12T08:35:38;97740.59;;;12.65;41.37
76216;BME280;65010;50.190;18.930;2023-04-12T08:38:44;97732.47;;;12.80;40.50
76216;BME280;65010;50.190;18.930;2023-04-12T08:41:56;97737.25;;;13.50;40.50
76216;BME280;65010;50.190;18.930;2023-04-12T08:45:05;97732.94;;;14.53;37.96
76216;BME280;65010;50.190;18.930;2023-04-12T08:48:13;97725.84;;;15.22;36.36
76216;BME280;65010;50.190;18.930;2023-04-12T08:51:22;97731.66;;;16.04;34.52
76216;BME280;65010;50.190;18.930;2023-04-12T08:54:29;97709.50;;;16.71;33.35
76216;BME280;65010;50.190;18.930;2023-04-12T08:57:36;97715.50;;;17.49;33.71
76216;BME280;65010;50.190;18.930;2023-04-12T09:00:46;97713.22;;;18.68;30.12
76216;BME280;65010;50.190;18.930;2023-04-12T09:03:52;97699.31;;;19.77;29.40
76216;BME280;65010;50.190;18.930;2023-04-12T09:07:01;97694.72;;;20.49;26.83
76216;BME280;65010;50.190;18.930;2023-04-12T09:10:08;97689.25;;;20.98;27.20
76216;BME280;65010;50.190;18.930;2023-04-12T09:13:14;97679.31;;;22.15;24.71
76216;BME280;65010;50.190;18.930;2023-04-12T09:16:35;97675.31;;;22.99;23.76
76216;BME280;65010;50.190;18.930;2023-04-12T09:19:43;97671.88;;;23.74;22.57
76216;BME280;65010;50.190;18.930;2023-04-12T09:22:51;97651.53;;;24.47;20.78
76216;BME280;65010;50.190;18.930;2023-04-12T09:25:59;97664.03;;;25.45;20.77
76216;BME280;65010;50.190;18.930;2023-04-12T09:29:04;97659.78;;;26.06;20.46
76216;BME280;65010;50.190;18.930;2023-04-12T09:32:25;97658.84;;;25.72;20.28
76216;BME280;65010;50.190;18.930;2023-04-12T09:35:33;97654.19;;;24.87;19.65
76216;BME280;65010;50.190;18.930;2023-04-12T09:38:57;97664.88;;;23.13;22.37
76216;BME280;65010;50.190;18.930;2023-04-12T09:42:06;97660.88;;;22.34;23.97
76216;BME280;65010;50.190;18.930;2023-04-12T09:45:35;97662.75;;;21.39;24.86
76216;BME280;65010;50.190;18.930;2023-04-12T09:48:49;97648.25;;;20.88;26.44
76216;BME280;65010;50.190;18.930;2023-04-12T09:51:57;97651.91;;;20.34;26.00
76216;BME280;65010;50.190;18.930;2023-04-12T09:55:08;97644.94;;;19.56;26.85
76216;BME280;65010;50.190;18.930;2023-04-12T09:58:18;97645.91;;;19.06;26.65
76216;BME280;65010;50.190;18.930;2023-04-12T10:01:25;97637.91;;;18.50;27.42
76216;BME280;65010;50.190;18.930;2023-04-12T10:04:32;97635.16;;;18.79;29.73
76216;BME280;65010;50.190;18.930;2023-04-12T10:07:39;97628.28;;;19.66;26.67
76216;BME280;65010;50.190;18.930;2023-04-12T10:10:52;97617.72;;;20.68;25.20
76216;BME280;65010;50.190;18.930;2023-04-12T10:14:00;97620.34;;;21.00;25.58
76216;BME280;65010;50.190;18.930;2023-04-12T10:17:08;97624.94;;;21.10;23.97
76216;BME280;65010;50.190;18.930;2023-04-12T10:20:17;97609.44;;;20.70;24.33
76216;BME280;65010;50.190;18.930;2023-04-12T10:23:31;97619.50;;;20.57;24.28
76216;BME280;65010;50.190;18.930;2023-04-12T10:26:43;97618.88;;;21.35;24.86
76216;BME280;65010;50.190;18.930;2023-04-12T10:29:52;97605.69;;;22.69;24.23
76216;BME280;65010;50.190;18.930;2023-04-12T10:33:16;97601.50;;;23.88;21.46
76216;BME280;65010;50.190;18.930;2023-04-12T10:36:49;97600.34;;;25.40;19.22
76216;BME280;65010;50.190;18.930;2023-04-12T10:39:56;97593.66;;;26.32;18.64
76216;BME280;65010;50.190;18.930;2023-04-12T10:43:26;97598.25;;;26.78;18.13
76216;BME280;65010;50.190;18.930;2023-04-12T10:46:48;97603.69;;;27.34;16.95
76216;BME280;65010;50.190;18.930;2023-04-12T10:50:19;97597.34;;;26.97;16.73
76216;BME280;65010;50.190;18.930;2023-04-12T10:53:32;97595.75;;;27.37;15.93
76216;BME280;65010;50.190;18.930;2023-04-12T10:56:42;97579.41;;;27.84;15.59
76216;BME280;65010;50.190;18.930;2023-04-12T11:00:11;97575.81;;;27.97;16.03
76216;BME280;65010;50.190;18.930;2023-04-12T11:03:18;97579.22;;;28.03;16.98
76216;BME280;65010;50.190;18.930;2023-04-12T11:06:39;97566.16;;;28.50;15.83
76216;BME280;65010;50.190;18.930;2023-04-12T11:10:12;97566.59;;;29.15;15.25
76216;BME280;65010;50.190;18.930;2023-04-12T11:13:21;97563.00;;;29.37;15.73
76216;BME280;65010;50.190;18.930;2023-04-12T11:16:31;97557.91;;;28.87;15.42
76216;BME280;65010;50.190;18.930;2023-04-12T11:19:38;97554.41;;;27.79;15.81
76216;BME280;65010;50.190;18.930;2023-04-12T11:22:48;97562.91;;;26.80;16.97
76216;BME280;65010;50.190;18.930;2023-04-12T11:25:57;97557.09;;;25.74;18.13
76216;BME280;65010;50.190;18.930;2023-04-12T11:29:06;97564.34;;;24.69;17.93
76216;BME280;65010;50.190;18.930;2023-04-12T11:32:15;97563.03;;;22.93;19.88
76216;BME280;65010;50.190;18.930;2023-04-12T11:35:22;97562.88;;;22.28;21.86
76216;BME280;65010;50.190;18.930;2023-04-12T11:38:32;97560.41;;;21.59;21.26
76216;BME280;65010;50.190;18.930;2023-04-12T11:41:43;97559.94;;;20.94;22.28
76216;BME280;65010;50.190;18.930;2023-04-12T11:44:49;97552.56;;;20.64;22.38
76216;BME280;65010;50.190;18.930;2023-04-12T11:48:09;97546.88;;;20.55;23.87
76216;BME280;65010;50.190;18.930;2023-04-12T11:51:19;97536.56;;;20.27;24.23
76216;BME280;65010;50.190;18.930;2023-04-12T11:54:28;97541.56;;;19.86;23.34
76216;BME280;65010;50.190;18.930;2023-04-12T11:57:36;97538.66;;;19.92;23.56
76216;BME280;65010;50.190;18.930;2023-04-12T12:00:44;97529.22;;;20.44;23.10
76216;BME280;65010;50.190;18.930;2023-04-12T12:03:54;97526.09;;;21.10;23.83
76216;BME280;65010;50.190;18.930;2023-04-12T12:07:01;97518.41;;;21.39;22.75
76216;BME280;65010;50.190;18.930;2023-04-12T12:10:09;97517.34;;;21.40;21.79
76216;BME280;65010;50.190;18.930;2023-04-12T12:13:45;97517.28;;;21.20;23.14
76216;BME280;65010;50.190;18.930;2023-04-12T12:16:52;97505.63;;;20.83;23.37
76216;BME280;65010;50.190;18.930;2023-04-12T12:20:03;97512.28;;;20.28;23.05
76216;BME280;65010;50.190;18.930;2023-04-12T12:23:10;97508.91;;;20.06;24.11
76216;BME280;65010;50.190;18.930;2023-04-12T12:26:22;97502.22;;;19.71;24.76
76216;BME280;65010;50.190;18.930;2023-04-12T12:29:34;97488.53;;;19.08;24.21
76216;BME280;65010;50.190;18.930;2023-04-12T12:32:42;97496.59;;;18.91;25.42
76216;BME280;65010;50.190;18.930;2023-04-12T12:35:57;97496.72;;;18.79;24.93
76216;BME280;65010;50.190;18.930;2023-04-12T12:39:06;97490.53;;;18.73;25.27
76216;BME280;65010;50.190;18.930;2023-04-12T12:42:13;97493.16;;;18.51;25.06
76216;BME280;65010;50.190;18.930;2023-04-12T12:45:22;97488.72;;;18.40;26.25
76216;BME280;65010;50.190;18.930;2023-04-12T12:48:29;97482.78;;;18.33;26.13
76216;BME280;65010;50.190;18.930;2023-04-12T12:51:40;97486.84;;;18.18;25.98
76216;BME280;65010;50.190;18.930;2023-04-12T12:54:46;97489.84;;;17.88;26.20
76216;BME280;65010;50.190;18.930;2023-04-12T12:57:54;97475.53;;;17.60;27.89
76216;BME280;65010;50.190;18.930;2023-04-12T13:01:04;97479.47;;;17.41;29.82
76216;BME280;65010;50.190;18.930;2023-04-12T13:04:11;97472.56;;;17.57;29.45
76216;BME280;65010;50.190;18.930;2023-04-12T13:07:19;97464.75;;;17.50;28.69
76216;BME280;65010;50.190;18.930;2023-04-12T13:10:26;97456.28;;;17.53;29.11
76216;BME280;65010;50.190;18.930;2023-04-12T13:13:32;97457.47;;;17.74;29.18
76216;BME280;65010;50.190;18.930;2023-04-12T13:16:40;97456.00;;;17.83;28.01
76216;BME280;65010;50.190;18.930;2023-04-12T13:19:48;97440.06;;;18.00;27.62
76216;BME280;65010;50.190;18.930;2023-04-12T13:22:57;97442.28;;;17.92;27.63
76216;BME280;65010;50.190;18.930;2023-04-12T13:26:03;97441.25;;;17.76;27.60
76216;BME280;65010;50.190;18.930;2023-04-12T13:29:10;97446.69;;;17.64;27.13
76216;BME280;65010;50.190;18.930;2023-04-12T13:32:16;97430.13;;;17.45;27.22
76216;BME280;65010;50.190;18.930;2023-04-12T13:35:23;97435.63;;;17.10;27.92
76216;BME280;65010;50.190;18.930;2023-04-12T13:38:31;97437.44;;;16.92;28.56
76216;BME280;65010;50.190;18.930;2023-04-12T13:41:38;97439.31;;;17.09;28.39
76216;BME280;65010;50.190;18.930;2023-04-12T13:44:43;97433.34;;;17.30;27.90
76216;BME280;65010;50.190;18.930;2023-04-12T13:47:50;97417.22;;;17.54;28.77
76216;BME280;65010;50.190;18.930;2023-04-12T13:50:56;97425.88;;;17.61;28.66
76216;BME280;65010;50.190;18.930;2023-04-12T13:54:05;97422.41;;;17.60;29.25
76216;BME280;65010;50.190;18.930;2023-04-12T13:57:11;97420.69;;;18.05;27.87
76216;BME280;65010;50.190;18.930;2023-04-12T14:00:19;97414.44;;;18.77;28.30
76216;BME280;65010;50.190;18.930;2023-04-12T14:03:25;97409.47;;;19.73;27.02
76216;BME280;65010;50.190;18.930;2023-04-12T14:06:32;97399.84;;;20.77;24.79
76216;BME280;65010;50.190;18.930;2023-04-12T14:09:40;97398.38;;;21.84;24.38
76216;BME280;65010;50.190;18.930;2023-04-12T14:12:46;97390.47;;;22.34;21.21
76216;BME280;65010;50.190;18.930;2023-04-12T14:15:53;97386.56;;;22.76;21.67
76216;BME280;65010;50.190;18.930;2023-04-12T14:19:00;97391.41;;;22.74;21.02
76216;BME280;65010;50.190;18.930;2023-04-12T14:22:05;97395.06;;;22.88;20.97
76216;BME280;65010;50.190;18.930;2023-04-12T14:25:14;97388.84;;;22.48;20.43
76216;BME280;65010;50.190;18.930;2023-04-12T14:28:20;97401.56;;;21.96;21.44
76216;BME280;65010;50.190;18.930;2023-04-12T14:31:33;97378.59;;;21.70;21.27
76216;BME280;65010;50.190;18.930;2023-04-12T14:34:39;97391.13;;;21.64;22.39
76216;BME280;65010;50.190;18.930;2023-04-12T14:37:47;97389.81;;;21.82;21.08
76216;BME280;65010;50.190;18.930;2023-04-12T14:40:55;97394.63;;;21.95;20.66
76216;BME280;65010;50.190;18.930;2023-04-12T14:44:01;97386.78;;;22.14;22.10
76216;BME280;65010;50.190;18.930;2023-04-12T14:47:07;97387.09;;;22.02;20.60
76216;BME280;65010;50.190;18.930;2023-04-12T14:50:16;97394.38;;;21.61;21.27
76216;BME280;65010;50.190;18.930;2023-04-12T14:53:22;97379.91;;;21.62;22.35
76216;BME280;65010;50.190;18.930;2023-04-12T14:56:32;97374.03;;;21.86;21.67
76216;BME280;65010;50.190;18.930;2023-04-12T14:59:49;97364.09;;;21.96;22.21
76216;BME280;65010;50.190;18.930;2023-04-12T15:02:56;97376.19;;;21.22;21.29
76216;BME280;65010;50.190;18.930;2023-04-12T15:06:02;97367.63;;;21.10;22.74
76216;BME280;65010;50.190;18.930;2023-04-12T15:09:12;97360.94;;;21.48;22.88
76216;BME280;65010;50.190;18.930;2023-04-12T15:12:22;97354.25;;;21.81;22.78
76216;BME280;65010;50.190;18.930;2023-04-12T15:15:35;97362.16;;;22.22;22.31
76216;BME280;65010;50.190;18.930;2023-04-12T15:18:44;97355.16;;;22.42;21.57
76216;BME280;65010;50.190;18.930;2023-04-12T15:21:57;97342.53;;;22.48;22.31
76216;BME280;65010;50.190;18.930;2023-04-12T15:25:09;97340.59;;;22.64;21.66
76216;BME280;65010;50.190;18.930;2023-04-12T15:28:20;97345.69;;;22.55;21.67
76216;BME280;65010;50.190;18.930;2023-04-12T15:31:36;97333.41;;;22.49;20.49
76216;BME280;65010;50.190;18.930;2023-04-12T15:34:43;97337.66;;;22.55;22.49
76216;BME280;65010;50.190;18.930;2023-04-12T15:37:49;97338.53;;;22.45;21.95
76216;BME280;65010;50.190;18.930;2023-04-12T15:40:58;97348.75;;;22.22;21.34
76216;BME280;65010;50.190;18.930;2023-04-12T15:44:09;97351.34;;;21.68;21.33
76216;BME280;65010;50.190;18.930;2023-04-12T15:47:17;97343.06;;;21.28;21.99
76216;BME280;65010;50.190;18.930;2023-04-12T15:50:22;97349.47;;;21.37;22.47
76216;BME280;65010;50.190;18.930;2023-04-12T15:53:29;97340.91;;;21.25;22.01
76216;BME280;65010;50.190;18.930;2023-04-12T15:56:35;97338.25;;;21.15;21.88
76216;BME280;65010;50.190;18.930;2023-04-12T15:59:44;97328.63;;;21.03;23.28
76216;BME280;65010;50.190;18.930;2023-04-12T16:02:54;97331.03;;;21.20;23.35
76216;BME280;65010;50.190;18.930;2023-04-12T16:06:01;97333.72;;;21.31;23.46
76216;BME280;65010;50.190;18.930;2023-04-12T16:09:07;97330.25;;;21.30;22.62
76216;BME280;65010;50.190;18.930;2023-04-12T16:12:14;97328.34;;;21.26;23.21
76216;BME280;65010;50.190;18.930;2023-04-12T16:15:22;97317.69;;;21.10;23.43
76216;BME280;65010;50.190;18.930;2023-04-12T16:18:29;97319.00;;;20.97;24.09
76216;BME280;65010;50.190;18.930;2023-04-12T16:21:34;97315.75;;;20.85;23.36
76216;BME280;65010;50.190;18.930;2023-04-12T16:24:41;97323.19;;;20.57;23.80
76216;BME280;65010;50.190;18.930;2023-04-12T16:27:49;97322.03;;;20.22;24.19
76216;BME280;65010;50.190;18.930;2023-04-12T16:31:01;97311.09;;;19.71;24.19
76216;BME280;65010;50.190;18.930;2023-04-12T16:34:07;97318.00;;;19.30;24.60
76216;BME280;65010;50.190;18.930;2023-04-12T16:37:13;97316.13;;;18.98;26.17
76216;BME280;65010;50.190;18.930;2023-04-12T16:40:19;97315.94;;;18.50;26.47